Time,TemperatureF,DewpointF,PressureIn,WindDirection,WindDirectionDegrees,WindSpeedMPH,WindSpeedGustMPH,Humidity,HourlyPrecipIn,Conditions,Clouds,dailyrainin,SoftwareType,DateUTC
2013-02-24 00:00:00,71.4,69.9,29.96,SW,222,1.0,6.0,95,0.00,,SKC,0.00,VWS V14.01,2013-02-24 05:00:00,
2013-02-24 00:05:00,71.4,69.9,29.96,SW,219,0.0,5.0,95,0.00,,SKC,0.00,VWS V14.01,2013-02-24 05:05:00,
2013-02-24 00:10:00,71.4,69.9,29.96,SW,218,0.0,5.0,95,0.00,,SKC,0.00,VWS V14.01,2013-02-24 05:10:00,
2013-02-24 00:15:00,71.4,69.9,29.96,SE,145,2.0,5.0,95,0.00,,SKC,0.00,VWS V14.01,2013-02-24 05:15:00,
2013-02-24 00:20:00,71.4,69.9,29.96,SSW,213,1.0,5.0,95,0.00,,SKC,0.00,VWS V14.01,2013-02-24 05:20:00,
2013-02-24 00:25:00,71.4,70.2,29.96,South,172,0.0,5.0,96,0.00,,SKC,0.00,VWS V14.01,2013-02-24 05:25:00,
2013-02-24 00:30:00,71.4,70.2,29.95,SSW,200,0.0,5.0,96,0.00,,SKC,0.00,VWS V14.01,2013-02-24 05:30:00,
2013-02-24 00:35:00,71.4,70.2,29.95,SE,145,0.0,4.0,96,0.00,,SKC,0.00,VWS V14.01,2013-02-24 05:35:00,
2013-02-24 00:40:00,71.4,70.2,29.95,SSW,195,1.0,5.0,96,0.00,,SKC,0.00,VWS V14.01,2013-02-24 05:40:00,
2013-02-24 00:45:00,71.4,70.2,29.95,SW,221,0.0,5.0,96,0.00,,SKC,0.00,VWS V14.01,2013-02-24 05:45:00,
2013-02-24 00:50:00,71.4,70.2,29.95,South,173,0.0,5.0,96,0.00,,SKC,0.00,VWS V14.01,2013-02-24 05:50:00,
2013-02-24 00:55:00,71.4,70.2,29.95,SSW,194,4.0,5.0,96,0.00,,SKC,0.00,VWS V14.01,2013-02-24 05:55:00,
2013-02-24 01:00:00,71.3,70.1,29.95,SE,141,2.0,5.0,96,0.00,,SKC,0.00,VWS V14.01,2013-02-24 06:00:00,
2013-02-24 01:05:00,71.3,70.1,29.95,SSE,153,2.0,4.0,96,0.00,,SKC,0.00,VWS V14.01,2013-02-24 06:05:00,
2013-02-24 01:10:00,71.3,70.1,29.95,SSE,165,1.0,6.0,96,0.00,,SKC,0.00,VWS V14.01,2013-02-24 06:10:00,
2013-02-24 01:15:00,71.3,70.1,29.95,SSE,158,2.0,6.0,96,0.00,,SKC,0.00,VWS V14.01,2013-02-24 06:15:00,
2013-02-24 01:20:00,71.3,70.1,29.95,SW,217,0.0,6.0,96,0.00,,SKC,0.00,VWS V14.01,2013-02-24 06:20:00,
2013-02-24 01:25:00,71.3,70.1,29.94,South,191,0.0,6.0,96,0.00,,SKC,0.00,VWS V14.01,2013-02-24 06:25:00,
2013-02-24 01:30:00,71.3,70.1,29.94,ESE,119,0.0,6.0,96,0.00,,SKC,0.00,VWS V14.01,2013-02-24 06:30:00,
2013-02-24 01:35:00,71.2,70.0,29.94,SSW,209,0.0,5.0,96,0.00,,SKC,0.00,VWS V14.01,2013-02-24 06:35:00,
2013-02-24 01:40:00,71.2,70.0,29.94,SSE,148,1.0,5.0,96,0.00,,SKC,0.00,VWS V14.01,2013-02-24 06:40:00,
2013-02-24 01:45:00,71.2,70.0,29.94,South,187,0.0,5.0,96,0.00,,SKC,0.00,VWS V14.01,2013-02-24 06:45:00,
2013-02-24 01:50:00,71.3,70.1,29.94,SSE,157,1.0,5.0,96,0.00,,SKC,0.00,VWS V14.01,2013-02-24 06:50:00,
2013-02-24 01:55:00,71.3,70.1,29.94,WSW,244,1.0,5.0,96,0.00,,SKC,0.00,VWS V14.01,2013-02-24 06:55:00,
2013-02-24 02:00:00,71.2,70.0,29.94,SW,214,0.0,5.0,96,0.00,,SKC,0.00,VWS V14.01,2013-02-24 07:00:00,
2013-02-24 02:05:00,71.2,70.0,29.94,SSW,210,2.0,3.0,96,0.00,,SKC,0.00,VWS V14.01,2013-02-24 07:05:00,
2013-02-24 02:10:00,71.2,70.0,29.94,SSW,213,1.0,5.0,96,0.00,,SKC,0.00,VWS V14.01,2013-02-24 07:10:00,
2013-02-24 02:15:00,71.1,69.9,29.93,South,169,4.0,5.0,96,0.00,,SKC,0.00,VWS V14.01,2013-02-24 07:15:00,
2013-02-24 02:20:00,71.0,69.8,29.93,SSW,205,0.0,5.0,96,0.00,,SKC,0.00,VWS V14.01,2013-02-24 07:20:00,
2013-02-24 02:25:00,71.0,69.8,29.93,SSE,152,0.0,5.0,96,0.00,,SKC,0.00,VWS V14.01,2013-02-24 07:25:00,
2013-02-24 02:30:00,70.9,69.7,29.93,South,187,0.0,5.0,96,0.00,,SKC,0.00,VWS V14.01,2013-02-24 07:30:00,
2013-02-24 02:35:00,70.9,69.7,29.93,SE,145,0.0,0.0,96,0.00,,SKC,0.00,VWS V14.01,2013-02-24 07:35:00,
2013-02-24 02:40:00,70.8,69.6,29.93,SSE,157,1.0,5.0,96,0.00,,SKC,0.00,VWS V14.01,2013-02-24 07:40:00,
2013-02-24 02:45:00,70.7,69.5,29.93,SSE,164,0.0,7.0,96,0.00,,SKC,0.00,VWS V14.01,2013-02-24 07:45:00,
2013-02-24 02:50:00,70.7,69.5,29.93,SSE,165,1.0,7.0,96,0.00,,SKC,0.00,VWS V14.01,2013-02-24 07:50:00,
2013-02-24 02:55:00,70.7,69.5,29.92,SE,139,4.0,7.0,96,0.00,,SKC,0.00,VWS V14.01,2013-02-24 07:55:00,
2013-02-24 03:00:00,70.6,69.4,29.92,SSE,152,2.0,7.0,96,0.00,,SKC,0.00,VWS V14.01,2013-02-24 08:00:00,
2013-02-24 03:05:00,70.5,69.3,29.92,SSE,157,2.0,6.0,96,0.00,,SKC,0.00,VWS V14.01,2013-02-24 08:05:00,
2013-02-24 03:10:00,70.5,69.3,29.93,SW,222,2.0,6.0,96,0.00,,SKC,0.00,VWS V14.01,2013-02-24 08:10:00,
2013-02-24 03:15:00,70.5,69.3,29.93,South,178,2.0,6.0,96,0.00,,SKC,0.00,VWS V14.01,2013-02-24 08:15:00,
2013-02-24 03:20:00,70.5,69.3,29.92,SSE,167,3.0,6.0,96,0.00,,SKC,0.00,VWS V14.01,2013-02-24 08:20:00,
2013-02-24 03:25:00,70.4,69.2,29.92,SSW,203,0.0,6.0,96,0.00,,SKC,0.00,VWS V14.01,2013-02-24 08:25:00,
2013-02-24 03:30:00,70.4,69.2,29.92,SSE,148,0.0,6.0,96,0.00,,SKC,0.00,VWS V14.01,2013-02-24 08:30:00,
2013-02-24 03:35:00,70.4,69.2,29.92,SE,128,1.0,3.0,96,0.00,,SKC,0.00,VWS V14.01,2013-02-24 08:35:00,
2013-02-24 03:40:00,70.4,69.2,29.92,SE,145,4.0,5.0,96,0.00,,SKC,0.00,VWS V14.01,2013-02-24 08:40:00,
2013-02-24 03:45:00,70.4,69.2,29.91,SSE,167,4.0,7.0,96,0.00,,SKC,0.00,VWS V14.01,2013-02-24 08:45:00,
2013-02-24 03:50:00,70.4,69.2,29.92,SE,146,5.0,7.0,96,0.00,,SKC,0.00,VWS V14.01,2013-02-24 08:50:00,
2013-02-24 03:55:00,70.4,69.2,29.92,ESE,111,4.0,7.0,96,0.00,,SKC,0.00,VWS V14.01,2013-02-24 08:55:00,
2013-02-24 04:00:00,70.4,69.2,29.92,SSE,155,2.0,7.0,96,0.00,,SKC,0.00,VWS V14.01,2013-02-24 09:00:00,
2013-02-24 04:05:00,70.4,69.2,29.92,SSE,157,6.0,6.0,96,0.00,,SKC,0.00,VWS V14.01,2013-02-24 09:05:00,
2013-02-24 04:10:00,70.5,69.3,29.92,South,172,2.0,7.0,96,0.00,,SKC,0.00,VWS V14.01,2013-02-24 09:10:00,
2013-02-24 04:15:00,70.5,69.3,29.92,SSE,159,4.0,7.0,96,0.00,,SKC,0.00,VWS V14.01,2013-02-24 09:15:00,
2013-02-24 04:20:00,70.5,69.3,29.92,SSW,213,0.0,7.0,96,0.00,,SKC,0.00,VWS V14.01,2013-02-24 09:20:00,
2013-02-24 04:25:00,70.5,69.3,29.92,South,184,0.0,7.0,96,0.00,,SKC,0.00,VWS V14.01,2013-02-24 09:25:00,
2013-02-24 04:30:00,70.5,69.3,29.92,SSE,149,0.0,7.0,96,0.00,,SKC,0.00,VWS V14.01,2013-02-24 09:30:00,
2013-02-24 04:35:00,70.5,69.3,29.92,ESE,114,1.0,6.0,96,0.00,,SKC,0.00,VWS V14.01,2013-02-24 09:35:00,
2013-02-24 04:40:00,70.4,69.2,29.92,SE,136,2.0,6.0,96,0.00,,SKC,0.00,VWS V14.01,2013-02-24 09:40:00,
2013-02-24 04:45:00,70.4,69.2,29.92,ESE,102,3.0,6.0,96,0.00,,SKC,0.00,VWS V14.01,2013-02-24 09:45:00,
2013-02-24 04:50:00,70.3,69.1,29.92,SSW,194,0.0,6.0,96,0.00,,SKC,0.00,VWS V14.01,2013-02-24 09:50:00,
2013-02-24 04:55:00,70.3,69.1,29.92,SE,136,3.0,6.0,96,0.00,,SKC,0.00,VWS V14.01,2013-02-24 09:55:00,
2013-02-24 05:00:00,70.3,69.1,29.92,SSW,192,5.0,6.0,96,0.00,,SKC,0.00,VWS V14.01,2013-02-24 10:00:00,
2013-02-24 05:05:00,70.3,69.1,29.92,SSW,203,2.0,5.0,96,0.00,,SKC,0.00,VWS V14.01,2013-02-24 10:05:00,
2013-02-24 05:10:00,70.3,69.1,29.92,SSE,160,1.0,6.0,96,0.00,,SKC,0.00,VWS V14.01,2013-02-24 10:10:00,
2013-02-24 05:15:00,70.3,69.1,29.92,SSE,148,2.0,6.0,96,0.00,,SKC,0.00,VWS V14.01,2013-02-24 10:15:00,
2013-02-24 05:20:00,70.3,69.1,29.92,SSE,164,0.0,6.0,96,0.00,,SKC,0.00,VWS V14.01,2013-02-24 10:20:00,
2013-02-24 05:25:00,70.3,69.1,29.92,SE,135,2.0,6.0,96,0.00,,SKC,0.00,VWS V14.01,2013-02-24 10:25:00,
2013-02-24 05:30:00,70.3,69.1,29.92,SE,141,0.0,6.0,96,0.00,,SKC,0.00,VWS V14.01,2013-02-24 10:30:00,
2013-02-24 05:35:00,70.4,69.2,29.93,SE,133,0.0,2.0,96,0.00,,SKC,0.00,VWS V14.01,2013-02-24 10:35:00,
2013-02-24 05:40:00,70.5,69.3,29.93,SSE,155,1.0,6.0,96,0.00,,SKC,0.00,VWS V14.01,2013-02-24 10:40:00,
2013-02-24 05:45:00,70.6,69.4,29.93,SSE,157,1.0,6.0,96,0.00,,SKC,0.00,VWS V14.01,2013-02-24 10:45:00,
2013-02-24 05:50:00,70.7,69.5,29.93,SSE,168,3.0,6.0,96,0.00,,SKC,0.00,VWS V14.01,2013-02-24 10:50:00,
2013-02-24 05:55:00,70.8,69.6,29.92,SSE,158,6.0,6.0,96,0.00,,SKC,0.00,VWS V14.01,2013-02-24 10:55:00,
2013-02-24 06:00:00,71.0,69.8,29.93,SE,135,0.0,6.0,96,0.00,,SKC,0.00,VWS V14.01,2013-02-24 11:00:00,
2013-02-24 06:05:00,71.2,70.0,29.93,SSW,207,0.0,4.0,96,0.00,,SKC,0.00,VWS V14.01,2013-02-24 11:05:00,
2013-02-24 06:10:00,71.2,70.0,29.92,SSE,167,2.0,6.0,96,0.00,,SKC,0.00,VWS V14.01,2013-02-24 11:10:00,
2013-02-24 06:15:00,71.2,70.0,29.92,SSW,206,1.0,6.0,96,0.00,,SKC,0.00,VWS V14.01,2013-02-24 11:15:00,
2013-02-24 06:20:00,71.1,69.9,29.92,SE,142,0.0,6.0,96,0.00,,SKC,0.00,VWS V14.01,2013-02-24 11:20:00,
2013-02-24 06:25:00,71.0,69.8,29.93,SSE,152,0.0,6.0,96,0.00,,SKC,0.00,VWS V14.01,2013-02-24 11:25:00,
2013-02-24 06:30:00,70.9,69.7,29.93,SSE,158,0.0,6.0,96,0.00,,SKC,0.00,VWS V14.01,2013-02-24 11:30:00,
2013-02-24 06:35:00,70.9,69.7,29.93,ESE,108,0.0,0.0,96,0.00,,SKC,0.00,VWS V14.01,2013-02-24 11:35:00,
2013-02-24 06:40:00,70.7,69.5,29.93,ESE,107,0.0,0.0,96,0.00,,SKC,0.00,VWS V14.01,2013-02-24 11:40:00,
2013-02-24 06:45:00,70.7,69.5,29.94,ESE,107,0.0,0.0,96,0.00,,SKC,0.00,VWS V14.01,2013-02-24 11:45:00,
2013-02-24 06:50:00,70.6,69.4,29.94,ESE,107,0.0,0.0,96,0.00,,SKC,0.00,VWS V14.01,2013-02-24 11:50:00,
2013-02-24 06:55:00,70.7,69.5,29.94,ESE,108,0.0,0.0,96,0.00,,SKC,0.00,VWS V14.01,2013-02-24 11:55:00,
2013-02-24 07:00:00,70.9,69.7,29.94,SE,131,0.0,0.0,96,0.00,,SKC,0.00,VWS V14.01,2013-02-24 12:00:00,
2013-02-24 07:05:00,71.0,69.8,29.94,SE,130,0.0,0.0,96,0.00,,SKC,0.00,VWS V14.01,2013-02-24 12:05:00,
2013-02-24 07:10:00,71.0,69.8,29.94,SE,130,0.0,0.0,96,0.00,,SKC,0.00,VWS V14.01,2013-02-24 12:10:00,
2013-02-24 07:15:00,71.0,69.8,29.95,SE,130,0.0,0.0,96,0.00,,SKC,0.00,VWS V14.01,2013-02-24 12:15:00,
2013-02-24 07:19:00,71.1,69.9,29.95,SE,130,0.0,0.0,96,0.00,,SKC,0.00,VWS V14.01,2013-02-24 12:19:00,
2013-02-24 07:25:00,71.2,70.0,29.95,SE,130,0.0,0.0,96,0.00,,SKC,0.00,VWS V14.01,2013-02-24 12:25:00,
2013-02-24 07:30:00,71.5,70.3,29.95,SE,129,0.0,0.0,96,0.00,,SKC,0.00,VWS V14.01,2013-02-24 12:30:00,
2013-02-24 07:35:00,71.7,70.5,29.95,East,101,0.0,0.0,96,0.00,,SKC,0.00,VWS V14.01,2013-02-24 12:35:00,
2013-02-24 07:40:00,71.9,70.7,29.95,ESE,107,0.0,0.0,96,0.00,,SKC,0.00,VWS V14.01,2013-02-24 12:40:00,
2013-02-24 07:45:00,72.2,71.0,29.95,ESE,108,0.0,0.0,96,0.00,,SKC,0.00,VWS V14.01,2013-02-24 12:45:00,
2013-02-24 07:50:00,72.4,71.2,29.95,ESE,103,0.0,0.0,96,0.00,,SKC,0.00,VWS V14.01,2013-02-24 12:50:00,
2013-02-24 07:55:00,72.7,71.5,29.95,SE,135,0.0,0.0,96,0.00,,SKC,0.00,VWS V14.01,2013-02-24 12:55:00,
2013-02-24 08:00:00,73.1,71.9,29.95,SSE,156,0.0,0.0,96,0.00,,SKC,0.00,VWS V14.01,2013-02-24 13:00:00,
2013-02-24 08:05:00,73.4,72.2,29.95,SE,144,0.0,4.0,96,0.00,,SKC,0.00,VWS V14.01,2013-02-24 13:05:00,
2013-02-24 08:10:00,73.6,72.1,29.95,SSE,160,0.0,4.0,95,0.00,,SKC,0.00,VWS V14.01,2013-02-24 13:10:00,
2013-02-24 08:15:00,73.9,72.4,29.96,SSE,163,0.0,4.0,95,0.00,,SKC,0.00,VWS V14.01,2013-02-24 13:15:00,
2013-02-24 08:20:00,74.5,73.0,29.96,South,171,0.0,4.0,95,0.00,,SKC,0.00,VWS V14.01,2013-02-24 13:20:00,
2013-02-24 08:25:00,74.6,72.8,29.96,SSW,195,0.0,4.0,94,0.00,,SKC,0.00,VWS V14.01,2013-02-24 13:25:00,
2013-02-24 08:30:00,74.7,72.6,29.97,SW,236,0.0,0.0,93,0.00,,SKC,0.00,VWS V14.01,2013-02-24 13:30:00,
2013-02-24 08:35:00,74.7,71.9,29.97,SSW,204,0.0,0.0,91,0.00,,SKC,0.00,VWS V14.01,2013-02-24 13:35:00,
2013-02-24 08:40:00,75.2,72.4,29.97,SSW,207,0.0,4.0,91,0.00,,SKC,0.00,VWS V14.01,2013-02-24 13:40:00,
2013-02-24 08:45:00,76.0,72.5,29.97,SSE,161,5.0,5.0,89,0.00,,SKC,0.00,VWS V14.01,2013-02-24 13:45:00,
2013-02-24 08:50:00,76.8,72.3,29.97,SW,221,1.0,5.0,86,0.00,,SKC,0.00,VWS V14.01,2013-02-24 13:50:00,
2013-02-24 08:55:00,77.2,72.0,29.97,SSW,204,1.0,5.0,84,0.00,,SKC,0.00,VWS V14.01,2013-02-24 13:55:00,
2013-02-24 09:00:00,77.5,71.2,29.97,SSW,200,2.0,2.0,81,0.00,,SKC,0.00,VWS V14.01,2013-02-24 14:00:00,
2013-02-24 09:05:00,77.9,72.0,29.97,SSW,210,2.0,4.0,82,0.00,,SKC,0.00,VWS V14.01,2013-02-24 14:05:00,
2013-02-24 09:10:00,78.4,71.7,29.98,SW,221,1.0,6.0,80,0.00,,SKC,0.00,VWS V14.01,2013-02-24 14:10:00,
2013-02-24 09:15:00,78.5,71.8,29.98,SSW,192,4.0,6.0,80,0.00,,SKC,0.00,VWS V14.01,2013-02-24 14:15:00,
2013-02-24 09:20:00,78.6,71.9,29.98,South,180,5.0,7.0,80,0.00,,SKC,0.00,VWS V14.01,2013-02-24 14:20:00,
2013-02-24 09:25:00,78.7,72.0,29.98,SE,136,2.0,9.0,80,0.00,,SKC,0.00,VWS V14.01,2013-02-24 14:25:00,
2013-02-24 09:30:00,79.4,72.3,29.98,SSE,157,4.0,4.0,79,0.00,,SKC,0.00,VWS V14.01,2013-02-24 14:30:00,
2013-02-24 09:35:00,79.7,72.2,29.98,South,175,3.0,8.0,78,0.00,,SKC,0.00,VWS V14.01,2013-02-24 14:35:00,
2013-02-24 09:40:00,80.0,71.8,29.98,SW,214,1.0,8.0,76,0.00,,SKC,0.00,VWS V14.01,2013-02-24 14:40:00,
2013-02-24 09:45:00,80.3,72.1,29.98,SSW,206,4.0,8.0,76,0.00,,SKC,0.00,VWS V14.01,2013-02-24 14:45:00,
2013-02-24 09:50:00,80.0,71.8,29.98,SSW,206,5.0,9.0,76,0.00,,SKC,0.00,VWS V14.01,2013-02-24 14:50:00,
2013-02-24 09:55:00,80.2,72.3,29.98,SSW,198,3.0,9.0,77,0.00,,SKC,0.00,VWS V14.01,2013-02-24 14:55:00,
2013-02-24 10:00:00,80.6,72.3,29.98,SSW,206,4.0,4.0,76,0.00,,SKC,0.00,VWS V14.01,2013-02-24 15:00:00,
2013-02-24 10:05:00,81.1,72.0,29.98,SW,217,4.0,6.0,74,0.00,,SKC,0.00,VWS V14.01,2013-02-24 15:05:00,
2013-02-24 10:10:00,81.2,72.5,29.98,SSW,194,1.0,6.0,75,0.00,,SKC,0.00,VWS V14.01,2013-02-24 15:10:00,
2013-02-24 10:15:00,81.2,72.1,29.98,South,188,3.0,7.0,74,0.00,,SKC,0.00,VWS V14.01,2013-02-24 15:15:00,
2013-02-24 10:20:00,81.2,72.1,29.97,SSW,212,4.0,9.0,74,0.00,,SKC,0.00,VWS V14.01,2013-02-24 15:20:00,
2013-02-24 10:25:00,81.4,71.9,29.97,WSW,244,5.0,9.0,73,0.00,,SKC,0.00,VWS V14.01,2013-02-24 15:25:00,
2013-02-24 10:30:00,81.4,70.7,29.97,SSW,201,6.0,6.0,70,0.00,,SKC,0.00,VWS V14.01,2013-02-24 15:30:00,
2013-02-24 10:35:00,81.7,71.8,29.97,SSW,203,5.0,7.0,72,0.00,,SKC,0.00,VWS V14.01,2013-02-24 15:35:00,
2013-02-24 10:40:00,82.2,72.3,29.97,South,190,6.0,10.0,72,0.00,,SKC,0.00,VWS V14.01,2013-02-24 15:40:00,
2013-02-24 10:45:00,82.3,71.5,29.97,West,259,5.0,10.0,70,0.00,,SKC,0.00,VWS V14.01,2013-02-24 15:45:00,
2013-02-24 10:50:00,82.3,72.0,29.97,SSW,198,4.0,10.0,71,0.00,,SKC,0.00,VWS V14.01,2013-02-24 15:50:00,
2013-02-24 10:55:00,82.4,72.1,29.97,SW,221,4.0,10.0,71,0.00,,SKC,0.00,VWS V14.01,2013-02-24 15:55:00,
2013-02-24 11:00:00,82.4,72.1,29.97,SSE,148,5.0,9.0,71,0.00,,SKC,0.00,VWS V14.01,2013-02-24 16:00:00,
2013-02-24 11:05:00,82.8,70.3,29.97,South,180,5.0,10.0,66,0.00,,SKC,0.00,VWS V14.01,2013-02-24 16:05:00,
2013-02-24 11:10:00,82.6,71.4,29.97,West,263,4.0,10.0,69,0.00,,SKC,0.00,VWS V14.01,2013-02-24 16:10:00,
2013-02-24 11:15:00,82.9,71.7,29.97,SE,132,7.0,10.0,69,0.00,,SKC,0.00,VWS V14.01,2013-02-24 16:15:00,
2013-02-24 11:20:00,83.3,72.5,29.96,SE,129,1.0,10.0,70,0.00,,SKC,0.00,VWS V14.01,2013-02-24 16:20:00,
2013-02-24 11:25:00,83.5,71.8,29.96,West,259,7.0,10.0,68,0.00,,SKC,0.00,VWS V14.01,2013-02-24 16:25:00,
2013-02-24 11:30:00,82.9,71.3,29.96,SSW,207,3.0,7.0,68,0.00,,SKC,0.00,VWS V14.01,2013-02-24 16:30:00,
2013-02-24 11:35:00,82.6,71.0,29.96,SW,232,1.0,10.0,68,0.00,,SKC,0.00,VWS V14.01,2013-02-24 16:35:00,
2013-02-24 11:40:00,82.5,71.7,29.96,SW,234,6.0,10.0,70,0.00,,SKC,0.00,VWS V14.01,2013-02-24 16:40:00,
2013-02-24 11:45:00,82.3,71.1,29.95,WSW,249,1.0,10.0,69,0.00,,SKC,0.00,VWS V14.01,2013-02-24 16:45:00,
2013-02-24 11:50:00,82.1,71.3,29.95,SSW,213,5.0,10.0,70,0.00,,SKC,0.00,VWS V14.01,2013-02-24 16:50:00,
2013-02-24 11:55:00,82.3,71.1,29.95,West,269,7.0,12.0,69,0.00,,SKC,0.00,VWS V14.01,2013-02-24 16:55:00,
2013-02-24 12:00:00,82.7,71.1,29.95,West,272,7.0,12.0,68,0.00,,SKC,0.00,VWS V14.01,2013-02-24 17:00:00,
2013-02-24 12:05:00,81.9,70.7,29.95,SW,230,7.0,11.0,69,0.00,,SKC,0.00,VWS V14.01,2013-02-24 17:05:00,
2013-02-24 12:10:00,82.4,71.2,29.95,WSW,249,6.0,11.0,69,0.00,,SKC,0.00,VWS V14.01,2013-02-24 17:10:00,
2013-02-24 12:15:00,82.4,71.2,29.94,SW,217,4.0,11.0,69,0.00,,SKC,0.00,VWS V14.01,2013-02-24 17:15:00,
2013-02-24 12:20:00,82.6,71.4,29.94,WSW,250,5.0,11.0,69,0.00,,SKC,0.00,VWS V14.01,2013-02-24 17:20:00,
2013-02-24 12:25:00,83.4,70.9,29.94,SSW,203,0.0,11.0,66,0.00,,SKC,0.00,VWS V14.01,2013-02-24 17:25:00,
2013-02-24 12:30:00,83.4,70.9,29.94,SSW,210,4.0,11.0,66,0.00,,SKC,0.00,VWS V14.01,2013-02-24 17:30:00,
2013-02-24 12:35:00,83.2,71.1,29.94,WSW,250,8.0,9.0,67,0.00,,SKC,0.00,VWS V14.01,2013-02-24 17:35:00,
2013-02-24 12:40:00,82.8,70.3,29.94,South,184,10.0,11.0,66,0.00,,SKC,0.00,VWS V14.01,2013-02-24 17:40:00,
2013-02-24 12:45:00,83.0,70.9,29.93,SSE,150,2.0,11.0,67,0.00,,SKC,0.00,VWS V14.01,2013-02-24 17:45:00,
2013-02-24 12:50:00,83.4,71.3,29.93,South,175,4.0,11.0,67,0.00,,SKC,0.00,VWS V14.01,2013-02-24 17:50:00,
2013-02-24 12:55:00,83.5,71.4,29.93,South,190,4.0,11.0,67,0.00,,SKC,0.00,VWS V14.01,2013-02-24 17:55:00,
2013-02-24 13:00:00,83.6,71.5,29.93,South,190,8.0,11.0,67,0.00,,SKC,0.00,VWS V14.01,2013-02-24 18:00:00,
2013-02-24 13:05:00,83.3,71.6,29.93,SW,221,5.0,10.0,68,0.00,,SKC,0.00,VWS V14.01,2013-02-24 18:05:00,
2013-02-24 13:10:00,83.4,70.9,29.93,SSW,192,7.0,10.0,66,0.00,,SKC,0.00,VWS V14.01,2013-02-24 18:10:00,
2013-02-24 13:15:00,83.5,71.4,29.92,SW,221,5.0,10.0,67,0.00,,SKC,0.00,VWS V14.01,2013-02-24 18:15:00,
2013-02-24 13:20:00,83.5,71.4,29.92,SSE,148,7.0,11.0,67,0.00,,SKC,0.00,VWS V14.01,2013-02-24 18:20:00,
2013-02-24 13:25:00,83.7,71.6,29.92,SSW,213,9.0,11.0,67,0.00,,SKC,0.00,VWS V14.01,2013-02-24 18:25:00,
2013-02-24 13:30:00,83.8,71.2,29.92,SW,219,5.0,11.0,66,0.00,,SKC,0.00,VWS V14.01,2013-02-24 18:30:00,
2013-02-24 13:35:00,83.6,72.4,29.92,WSW,257,1.0,9.0,69,0.00,,SKC,0.00,VWS V14.01,2013-02-24 18:35:00,
2013-02-24 13:40:00,84.0,71.9,29.92,SW,215,4.0,10.0,67,0.00,,SKC,0.00,VWS V14.01,2013-02-24 18:40:00,
2013-02-24 13:45:00,83.6,71.9,29.91,SSW,203,3.0,10.0,68,0.00,,SKC,0.00,VWS V14.01,2013-02-24 18:45:00,
2013-02-24 13:50:00,83.6,71.5,29.91,SSE,163,4.0,10.0,67,0.00,,SKC,0.00,VWS V14.01,2013-02-24 18:50:00,
2013-02-24 13:55:00,84.1,71.5,29.91,WSW,237,2.0,10.0,66,0.00,,SKC,0.00,VWS V14.01,2013-02-24 18:55:00,
2013-02-24 14:00:00,83.7,72.0,29.91,SW,214,4.0,7.0,68,0.00,,SKC,0.00,VWS V14.01,2013-02-24 19:00:00,
2013-02-24 14:05:00,83.2,71.6,29.91,SW,223,7.0,10.0,68,0.00,,SKC,0.00,VWS V14.01,2013-02-24 19:05:00,
2013-02-24 14:10:00,82.6,71.4,29.91,West,259,7.0,13.0,69,0.00,,SKC,0.00,VWS V14.01,2013-02-24 19:10:00,
2013-02-24 14:15:00,82.5,71.7,29.91,WSW,241,5.0,13.0,70,0.00,,SKC,0.00,VWS V14.01,2013-02-24 19:15:00,
2013-02-24 14:20:00,82.6,71.0,29.91,SSE,160,4.0,13.0,68,0.00,,SKC,0.00,VWS V14.01,2013-02-24 19:20:00,
2013-02-24 14:25:00,82.4,70.8,29.91,South,191,7.0,13.0,68,0.00,,SKC,0.00,VWS V14.01,2013-02-24 19:25:00,
2013-02-24 14:30:00,81.9,70.7,29.91,WSW,254,8.0,15.0,69,0.00,,SKC,0.00,VWS V14.01,2013-02-24 19:30:00,
2013-02-24 14:35:00,81.5,71.2,29.91,SW,229,9.0,13.0,71,0.00,,SKC,0.00,VWS V14.01,2013-02-24 19:35:00,
2013-02-24 14:40:00,81.2,71.3,29.91,SSE,168,9.0,13.0,72,0.00,,SKC,0.00,VWS V14.01,2013-02-24 19:40:00,
2013-02-24 14:45:00,81.3,71.8,29.90,WSW,241,12.0,13.0,73,0.00,,SKC,0.00,VWS V14.01,2013-02-24 19:45:00,
2013-02-24 14:50:00,80.8,71.7,29.91,South,186,6.0,13.0,74,0.00,,SKC,0.00,VWS V14.01,2013-02-24 19:50:00,
2013-02-24 14:55:00,81.0,71.5,29.91,SW,236,8.0,13.0,73,0.00,,SKC,0.00,VWS V14.01,2013-02-24 19:55:00,
2013-02-24 15:00:00,81.2,72.1,29.90,SW,227,5.0,13.0,74,0.00,,SKC,0.00,VWS V14.01,2013-02-24 20:00:00,
2013-02-24 15:05:00,81.7,73.0,29.91,SW,233,5.0,9.0,75,0.00,,SKC,0.00,VWS V14.01,2013-02-24 20:05:00,
2013-02-24 15:10:00,81.5,72.4,29.91,SW,227,12.0,12.0,74,0.00,,SKC,0.00,VWS V14.01,2013-02-24 20:10:00,
2013-02-24 15:15:00,80.7,72.0,29.90,WSW,241,10.0,12.0,75,0.00,,SKC,0.00,VWS V14.01,2013-02-24 20:15:00,
2013-02-24 15:20:00,80.5,72.6,29.90,SSW,199,5.0,12.0,77,0.00,,SKC,0.00,VWS V14.01,2013-02-24 20:20:00,
2013-02-24 15:25:00,80.8,72.9,29.90,WSW,255,5.0,12.0,77,0.00,,SKC,0.00,VWS V14.01,2013-02-24 20:25:00,
2013-02-24 15:30:00,81.0,73.1,29.90,WSW,240,4.0,12.0,77,0.00,,SKC,0.00,VWS V14.01,2013-02-24 20:30:00,
2013-02-24 15:35:00,80.6,72.3,29.90,West,276,7.0,11.0,76,0.00,,SKC,0.00,VWS V14.01,2013-02-24 20:35:00,
2013-02-24 15:40:00,80.0,72.5,29.90,SW,223,8.0,16.0,78,0.00,,SKC,0.00,VWS V14.01,2013-02-24 20:40:00,
2013-02-24 15:45:00,80.1,72.6,29.90,SSW,211,6.0,16.0,78,0.00,,SKC,0.00,VWS V14.01,2013-02-24 20:45:00,
2013-02-24 15:50:00,80.8,72.9,29.90,West,271,8.0,16.0,77,0.00,,SKC,0.00,VWS V14.01,2013-02-24 20:50:00,
2013-02-24 15:55:00,80.3,72.4,29.91,SW,234,5.0,16.0,77,0.00,,SKC,0.00,VWS V14.01,2013-02-24 20:55:00,
2013-02-24 16:00:00,80.3,72.4,29.91,SSW,213,6.0,16.0,77,0.00,,SKC,0.00,VWS V14.01,2013-02-24 21:00:00,
2013-02-24 16:05:00,79.9,72.4,29.90,SSW,195,4.0,9.0,78,0.00,,SKC,0.00,VWS V14.01,2013-02-24 21:05:00,
2013-02-24 16:10:00,79.5,72.4,29.91,West,259,8.0,9.0,79,0.00,,SKC,0.00,VWS V14.01,2013-02-24 21:10:00,
2013-02-24 16:15:00,78.6,72.3,29.91,West,275,4.0,12.0,81,0.00,,SKC,0.00,VWS V14.01,2013-02-24 21:15:00,
2013-02-24 16:20:00,78.0,72.1,29.91,SW,226,4.0,12.0,82,0.00,,SKC,0.00,VWS V14.01,2013-02-24 21:20:00,
2013-02-24 16:26:00,77.6,72.0,29.91,SW,225,5.0,12.0,83,0.00,,SKC,0.00,VWS V14.01,2013-02-24 21:26:00,
2013-02-24 16:31:00,77.3,71.7,29.91,SW,226,6.0,6.0,83,0.00,,SKC,0.00,VWS V14.01,2013-02-24 21:31:00,
2013-02-24 16:36:00,77.2,71.3,29.91,South,177,5.0,7.0,82,0.00,,SKC,0.00,VWS V14.01,2013-02-24 21:36:00,
2013-02-24 16:41:00,77.2,71.3,29.91,SW,232,5.0,7.0,82,0.00,,SKC,0.00,VWS V14.01,2013-02-24 21:41:00,
2013-02-24 16:46:00,77.2,71.6,29.91,South,182,5.0,7.0,83,0.00,,SKC,0.00,VWS V14.01,2013-02-24 21:46:00,
2013-02-24 16:51:00,77.2,71.6,29.91,SW,234,6.0,7.0,83,0.00,,SKC,0.00,VWS V14.01,2013-02-24 21:51:00,
2013-02-24 16:56:00,76.9,71.7,29.91,WSW,250,2.0,7.0,84,0.00,,SKC,0.00,VWS V14.01,2013-02-24 21:56:00,
2013-02-24 17:01:00,76.6,71.4,29.91,West,268,4.0,8.0,84,0.00,,SKC,0.00,VWS V14.01,2013-02-24 22:01:00,
2013-02-24 17:06:00,76.1,70.9,29.91,SSW,207,4.0,8.0,84,0.00,,SKC,0.00,VWS V14.01,2013-02-24 22:06:00,
2013-02-24 17:11:00,76.1,71.3,29.91,SE,144,4.0,8.0,85,0.00,,SKC,0.00,VWS V14.01,2013-02-24 22:11:00,
2013-02-24 17:16:00,75.8,70.6,29.91,SW,227,2.0,8.0,84,0.00,,SKC,0.00,VWS V14.01,2013-02-24 22:16:00,
2013-02-24 17:21:00,75.5,71.0,29.91,WSW,244,2.0,8.0,86,0.00,,SKC,0.00,VWS V14.01,2013-02-24 22:21:00,
2013-02-24 17:26:00,75.8,71.3,29.91,West,263,3.0,8.0,86,0.00,,SKC,0.00,VWS V14.01,2013-02-24 22:26:00,
2013-02-24 17:31:00,75.7,70.9,29.92,WSW,257,5.0,6.0,85,0.00,,SKC,0.00,VWS V14.01,2013-02-24 22:31:00,
2013-02-24 17:36:00,75.1,70.6,29.91,SSW,210,4.0,6.0,86,0.00,,SKC,0.00,VWS V14.01,2013-02-24 22:36:00,
2013-02-24 17:41:00,74.7,70.6,29.91,SSW,200,0.0,6.0,87,0.00,,SKC,0.00,VWS V14.01,2013-02-24 22:41:00,
2013-02-24 17:46:00,74.5,70.4,29.91,ESE,122,0.0,6.0,87,0.00,,SKC,0.00,VWS V14.01,2013-02-24 22:46:00,
2013-02-24 17:51:00,74.4,70.6,29.91,SW,223,0.0,6.0,88,0.00,,SKC,0.00,VWS V14.01,2013-02-24 22:51:00,
2013-02-24 17:56:00,74.1,70.3,29.91,SSW,199,3.0,6.0,88,0.00,,SKC,0.00,VWS V14.01,2013-02-24 22:56:00,
2013-02-24 18:01:00,73.8,70.4,29.91,SW,223,0.0,2.0,89,0.00,,SKC,0.00,VWS V14.01,2013-02-24 23:01:00,
2013-02-24 18:06:00,73.5,70.1,29.91,SW,225,0.0,2.0,89,0.00,,SKC,0.00,VWS V14.01,2013-02-24 23:06:00,
2013-02-24 18:11:00,73.3,70.2,29.91,South,191,1.0,5.0,90,0.00,,SKC,0.00,VWS V14.01,2013-02-24 23:11:00,
2013-02-24 18:16:00,73.1,70.0,29.91,SSE,152,1.0,5.0,90,0.00,,SKC,0.00,VWS V14.01,2013-02-24 23:16:00,
2013-02-24 18:21:00,72.9,69.8,29.91,SSW,192,0.0,5.0,90,0.00,,SKC,0.00,VWS V14.01,2013-02-24 23:21:00,
2013-02-24 18:26:00,72.8,70.0,29.91,SSW,203,1.0,5.0,91,0.00,,SKC,0.00,VWS V14.01,2013-02-24 23:26:00,
2013-02-24 18:31:00,72.7,69.9,29.91,SW,232,0.0,1.0,91,0.00,,SKC,0.00,VWS V14.01,2013-02-24 23:31:00,
2013-02-24 18:36:00,72.6,69.8,29.91,WSW,241,1.0,2.0,91,0.00,,SKC,0.00,VWS V14.01,2013-02-24 23:36:00,
2013-02-24 18:41:00,72.4,69.6,29.92,WSW,240,0.0,4.0,91,0.00,,SKC,0.00,VWS V14.01,2013-02-24 23:41:00,
2013-02-24 18:46:00,72.3,69.5,29.91,SW,234,0.0,4.0,91,0.00,,SKC,0.00,VWS V14.01,2013-02-24 23:46:00,
2013-02-24 18:51:00,72.2,69.4,29.91,SW,229,0.0,4.0,91,0.00,,SKC,0.00,VWS V14.01,2013-02-24 23:51:00,
2013-02-24 18:56:00,72.0,69.6,29.91,South,183,0.0,4.0,92,0.00,,SKC,0.00,VWS V14.01,2013-02-24 23:56:00,
2013-02-24 19:01:00,71.9,69.4,29.91,SW,218,5.0,5.0,92,0.00,,SKC,0.00,VWS V14.01,2013-02-25 00:01:00,
2013-02-24 19:06:00,71.8,69.3,29.91,SW,223,1.0,6.0,92,0.00,,SKC,0.00,VWS V14.01,2013-02-25 00:06:00,
2013-02-24 19:11:00,71.6,69.2,29.92,WSW,246,2.0,6.0,92,0.00,,SKC,0.00,VWS V14.01,2013-02-25 00:11:00,
2013-02-24 19:16:00,71.5,69.4,29.92,SW,214,1.0,6.0,93,0.00,,SKC,0.00,VWS V14.01,2013-02-25 00:16:00,
2013-02-24 19:21:00,71.3,69.2,29.92,West,259,1.0,6.0,93,0.00,,SKC,0.00,VWS V14.01,2013-02-25 00:21:00,
2013-02-24 19:26:00,71.2,69.1,29.92,SW,234,2.0,6.0,93,0.00,,SKC,0.00,VWS V14.01,2013-02-25 00:26:00,
2013-02-24 19:31:00,71.1,69.0,29.92,SW,229,1.0,5.0,93,0.00,,SKC,0.00,VWS V14.01,2013-02-25 00:31:00,
2013-02-24 19:36:00,71.0,68.9,29.92,WSW,241,1.0,5.0,93,0.00,,SKC,0.00,VWS V14.01,2013-02-25 00:36:00,
2013-02-24 19:41:00,70.9,68.8,29.92,SW,233,1.0,5.0,93,0.00,,SKC,0.00,VWS V14.01,2013-02-25 00:41:00,
2013-02-24 19:46:00,70.8,69.0,29.92,West,260,0.0,5.0,94,0.00,,SKC,0.00,VWS V14.01,2013-02-25 00:46:00,
2013-02-24 19:51:00,70.7,68.9,29.92,WSW,249,1.0,5.0,94,0.00,,SKC,0.00,VWS V14.01,2013-02-25 00:51:00,
2013-02-24 19:56:00,70.7,68.9,29.92,WSW,247,1.0,5.0,94,0.00,,SKC,0.00,VWS V14.01,2013-02-25 00:56:00,
2013-02-24 20:01:00,70.7,68.9,29.92,West,260,0.0,0.0,94,0.00,,SKC,0.00,VWS V14.01,2013-02-25 01:01:00,
2013-02-24 20:06:00,70.7,68.9,29.92,SW,219,0.0,4.0,94,0.00,,SKC,0.00,VWS V14.01,2013-02-25 01:06:00,
2013-02-24 20:11:00,70.6,68.8,29.92,SW,223,0.0,4.0,94,0.00,,SKC,0.00,VWS V14.01,2013-02-25 01:11:00,
2013-02-24 20:16:00,70.6,68.8,29.92,West,267,0.0,4.0,94,0.00,,SKC,0.00,VWS V14.01,2013-02-25 01:16:00,
2013-02-24 20:21:00,70.5,68.7,29.92,WSW,251,1.0,4.0,94,0.00,,SKC,0.00,VWS V14.01,2013-02-25 01:21:00,
2013-02-24 20:26:00,70.5,68.7,29.92,WSW,242,0.0,4.0,94,0.00,,SKC,0.00,VWS V14.01,2013-02-25 01:26:00,
2013-02-24 20:31:00,70.5,68.7,29.93,WSW,257,0.0,0.0,94,0.00,,SKC,0.00,VWS V14.01,2013-02-25 01:31:00,
2013-02-24 20:36:00,70.4,68.6,29.93,WSW,256,0.0,0.0,94,0.00,,SKC,0.00,VWS V14.01,2013-02-25 01:36:00,
2013-02-24 20:41:00,70.5,69.0,29.93,WSW,246,0.0,0.0,95,0.00,,SKC,0.00,VWS V14.01,2013-02-25 01:41:00,
2013-02-24 20:46:00,70.4,68.9,29.93,WSW,238,0.0,0.0,95,0.00,,SKC,0.00,VWS V14.01,2013-02-25 01:46:00,
2013-02-24 20:51:00,70.3,68.8,29.93,WSW,253,0.0,0.0,95,0.00,,SKC,0.00,VWS V14.01,2013-02-25 01:51:00,
2013-02-24 20:56:00,70.3,68.8,29.93,WSW,241,0.0,0.0,95,0.00,,SKC,0.00,VWS V14.01,2013-02-25 01:56:00,
2013-02-24 21:01:00,70.2,68.7,29.93,WSW,242,0.0,0.0,95,0.00,,SKC,0.00,VWS V14.01,2013-02-25 02:01:00,
2013-02-24 21:06:00,70.2,68.7,29.94,WSW,252,0.0,0.0,95,0.00,,SKC,0.00,VWS V14.01,2013-02-25 02:06:00,
2013-02-24 21:11:00,70.2,68.7,29.94,WSW,251,0.0,0.0,95,0.00,,SKC,0.00,VWS V14.01,2013-02-25 02:11:00,
2013-02-24 21:16:00,70.2,68.7,29.94,WSW,252,0.0,0.0,95,0.00,,SKC,0.00,VWS V14.01,2013-02-25 02:16:00,
2013-02-24 21:21:00,70.3,68.8,29.94,WSW,252,0.0,0.0,95,0.00,,SKC,0.00,VWS V14.01,2013-02-25 02:21:00,
2013-02-24 21:26:00,70.2,68.7,29.93,WSW,252,0.0,0.0,95,0.00,,SKC,0.00,VWS V14.01,2013-02-25 02:26:00,
2013-02-24 21:31:00,70.1,68.6,29.94,WSW,252,0.0,0.0,95,0.00,,SKC,0.00,VWS V14.01,2013-02-25 02:31:00,
2013-02-24 21:36:00,70.1,68.6,29.94,WSW,252,0.0,0.0,95,0.00,,SKC,0.00,VWS V14.01,2013-02-25 02:36:00,
2013-02-24 21:41:00,69.9,68.4,29.94,West,265,0.0,0.0,95,0.00,,SKC,0.00,VWS V14.01,2013-02-25 02:41:00,
2013-02-24 21:46:00,69.9,68.4,29.94,West,265,0.0,0.0,95,0.00,,SKC,0.00,VWS V14.01,2013-02-25 02:46:00,
2013-02-24 21:51:00,69.9,68.4,29.94,West,265,0.0,0.0,95,0.00,,SKC,0.00,VWS V14.01,2013-02-25 02:51:00,
2013-02-24 21:56:00,69.9,68.4,29.94,West,265,0.0,0.0,95,0.00,,SKC,0.00,VWS V14.01,2013-02-25 02:56:00,
2013-02-24 22:01:00,69.8,68.3,29.94,West,265,0.0,0.0,95,0.00,,SKC,0.00,VWS V14.01,2013-02-25 03:01:00,
2013-02-24 22:06:00,69.7,68.2,29.94,West,265,0.0,0.0,95,0.00,,SKC,0.00,VWS V14.01,2013-02-25 03:06:00,
2013-02-24 22:11:00,69.7,68.2,29.94,West,265,0.0,0.0,95,0.00,,SKC,0.00,VWS V14.01,2013-02-25 03:11:00,
2013-02-24 22:16:00,69.7,68.2,29.93,West,265,0.0,0.0,95,0.00,,SKC,0.00,VWS V14.01,2013-02-25 03:16:00,
2013-02-24 22:21:00,69.6,68.1,29.93,West,265,0.0,0.0,95,0.00,,SKC,0.00,VWS V14.01,2013-02-25 03:21:00,
2013-02-24 22:26:00,69.6,68.1,29.93,West,265,0.0,0.0,95,0.00,,SKC,0.00,VWS V14.01,2013-02-25 03:26:00,
2013-02-24 22:31:00,69.6,68.1,29.93,West,265,0.0,0.0,95,0.00,,SKC,0.00,VWS V14.01,2013-02-25 03:31:00,
2013-02-24 22:36:00,69.6,68.1,29.93,West,265,0.0,0.0,95,0.00,,SKC,0.00,VWS V14.01,2013-02-25 03:36:00,
2013-02-24 22:41:00,69.6,68.1,29.92,SE,134,0.0,0.0,95,0.00,,SKC,0.00,VWS V14.01,2013-02-25 03:41:00,
2013-02-24 22:46:00,69.5,68.0,29.92,ESE,121,0.0,0.0,95,0.00,,SKC,0.00,VWS V14.01,2013-02-25 03:46:00,
2013-02-24 22:51:00,69.3,67.8,29.92,ESE,111,0.0,0.0,95,0.00,,SKC,0.00,VWS V14.01,2013-02-25 03:51:00,
2013-02-24 22:56:00,69.2,67.7,29.92,ESE,115,0.0,0.0,95,0.00,,SKC,0.00,VWS V14.01,2013-02-25 03:56:00,
2013-02-24 23:01:00,69.2,67.7,29.92,ESE,114,0.0,0.0,95,0.00,,SKC,0.00,VWS V14.01,2013-02-25 04:01:00,
2013-02-24 23:06:00,69.1,67.6,29.92,ESE,114,0.0,0.0,95,0.00,,SKC,0.00,VWS V14.01,2013-02-25 04:06:00,
2013-02-24 23:11:00,69.0,67.8,29.91,ESE,113,0.0,0.0,96,0.00,,SKC,0.00,VWS V14.01,2013-02-25 04:11:00,
2013-02-24 23:16:00,69.0,67.8,29.91,ESE,111,0.0,0.0,96,0.00,,SKC,0.00,VWS V14.01,2013-02-25 04:16:00,
2013-02-24 23:21:00,69.0,67.5,29.91,ESE,111,0.0,0.0,95,0.00,,SKC,0.00,VWS V14.01,2013-02-25 04:21:00,
2013-02-24 23:26:00,68.9,67.4,29.91,ESE,111,0.0,0.0,95,0.00,,SKC,0.00,VWS V14.01,2013-02-25 04:26:00,
2013-02-24 23:31:00,68.9,67.7,29.91,ESE,111,0.0,0.0,96,0.00,,SKC,0.00,VWS V14.01,2013-02-25 04:31:00,
2013-02-24 23:36:00,68.8,67.6,29.90,ESE,111,0.0,0.0,96,0.00,,SKC,0.00,VWS V14.01,2013-02-25 04:36:00,
2013-02-24 23:41:00,68.8,67.6,29.90,NNE,26,0.0,0.0,96,0.00,,SKC,0.00,VWS V14.01,2013-02-25 04:41:00,
2013-02-24 23:46:00,68.7,67.5,29.90,NNW,333,0.0,0.0,96,0.00,,SKC,0.00,VWS V14.01,2013-02-25 04:46:00,
2013-02-24 23:51:00,68.6,67.4,29.90,NNW,346,2.0,2.0,96,0.00,,SKC,0.00,VWS V14.01,2013-02-25 04:51:00,
2013-02-24 23:56:00,68.5,67.3,29.90,NE,51,0.0,2.0,96,0.00,,SKC,0.00,VWS V14.01,2013-02-25 04:56:00,